Hauptseite
METAR-TAF:

METAR-TAF

Flughäfen :

Fliegerhorst Schleswig

Schleswig-Jagel, Deutschland

Breite: 54-28N, Länge: 009-31E, Höhe: 22 m

Beobachtung

Neuester Wetterbericht von vor 37 Minuten, um 03:20 UTC
Wind 8 kt aus Süd/Südwest
Temperatur 10°C
Luftfeuchtigkeit 93%
Luftdruck 1018 hPa
Sichtweite: 6000 m
Durchbrochene Bewölkung in der Höhe von 1400 ft
Sprühregen leicht

METAR: ETNS 180320Z 21008KT 6000 -DZ BKN014 10/09 Q1018 GRN

Zeit: 05:57 (03:57 UTC)


TAF: fehlend

Wetterbeobachtungen und Prognosen von mehr als 4000 Flughäfen (METAR und TAF Bericht).

Die verfügbaren Stationen werden durch gelbe und rote Markierungen auf der Karte dargestellt.

Führen Sie die Maus auf sie, um den Namen der Station zu sehen.

Darauf klicken, um die Beobachtung von Wetterbeobachtungen und Prognosen zu sehen.

Um die Karte zu ändern : klicken Sie auf den grünen Tasten mit einem schwarzen Kreuz Zum Vergrößern, auf den grünen Button mit einem Gedankenstrich zu verkleinern, oder auf die grünen Pfeile für benachbarte Karten.


METAR-TAF: